createdAt,value
2019-05-28T00:02:24.121Z,12.3
2019-05-28T00:07:24.684Z,12.2
2019-05-28T00:12:21.764Z,12.2
2019-05-28T00:17:22.098Z,12.1
2019-05-28T00:22:22.881Z,12.1
2019-05-28T00:27:23.890Z,12
2019-05-28T00:32:21.797Z,12
2019-05-28T00:37:23.664Z,11.9
2019-05-28T00:42:25.370Z,11.9
2019-05-28T00:47:23.168Z,11.8
2019-05-28T00:52:24.813Z,11.8
2019-05-28T00:57:24.975Z,11.7
2019-05-28T01:02:28.758Z,11.6
2019-05-28T01:07:24.919Z,11.6
2019-05-28T01:17:45.522Z,11.4
2019-05-28T01:22:45.264Z,11.3
2019-05-28T01:27:45.203Z,11.2
2019-05-28T01:32:45.205Z,11.1
2019-05-28T01:37:45.195Z,11
2019-05-28T01:42:45.214Z,11
2019-05-28T01:47:45.253Z,10.9
2019-05-28T01:52:45.196Z,10.8
2019-05-28T01:57:45.352Z,10.7
2019-05-28T02:02:45.459Z,10.7
2019-05-28T02:07:45.213Z,10.6
2019-05-28T02:12:45.295Z,10.6
2019-05-28T02:17:45.217Z,10.5
2019-05-28T02:22:45.219Z,10.5
2019-05-28T02:27:45.194Z,10.4
2019-05-28T02:32:45.264Z,10.4
2019-05-28T02:37:45.253Z,10.4
2019-05-28T02:42:45.338Z,10.4
2019-05-28T02:47:45.254Z,10.3
2019-05-28T02:52:45.225Z,10.3
2019-05-28T02:57:45.239Z,10.3
2019-05-28T03:02:45.835Z,10.3
2019-05-28T03:07:45.211Z,10.2
2019-05-28T03:12:45.260Z,10.2
2019-05-28T03:17:45.284Z,10.2
2019-05-28T03:22:45.526Z,10.2
2019-05-28T03:27:45.463Z,10.2
2019-05-28T03:32:45.546Z,10.2
2019-05-28T03:37:45.490Z,10.2
2019-05-28T03:42:46.305Z,10.2
2019-05-28T03:47:46.335Z,10.2
2019-05-28T03:52:46.314Z,10.2
2019-05-28T03:57:46.315Z,10.3
2019-05-28T04:02:46.292Z,10.3
2019-05-28T04:07:46.287Z,10.3
2019-05-28T04:12:46.785Z,10.3
2019-05-28T04:17:46.899Z,10.3
2019-05-28T04:22:47.927Z,10.3
2019-05-28T04:27:47.963Z,10.3
2019-05-28T04:32:48.433Z,10.4
2019-05-28T04:37:49.308Z,10.4
2019-05-28T04:42:50.308Z,10.4
2019-05-28T04:47:51.167Z,10.4
2019-05-28T04:52:51.854Z,10.5
2019-05-28T04:57:52.052Z,10.5
2019-05-28T05:02:59.128Z,10.5
2019-05-28T05:07:52.078Z,10.6
2019-05-28T05:12:56.008Z,10.6
2019-05-28T05:18:01.119Z,10.7
2019-05-28T05:23:01.081Z,10.7
2019-05-28T05:28:01.260Z,10.8
2019-05-28T05:33:18.473Z,10.9
2019-05-28T05:38:01.118Z,10.9
2019-05-28T05:43:03.861Z,11.1
2019-05-28T05:48:03.977Z,11.2
2019-05-28T05:53:03.909Z,11.4
2019-05-28T05:58:14.356Z,11.4
2019-05-28T06:03:14.360Z,11.5
2019-05-28T06:08:14.328Z,11.6
2019-05-28T06:13:14.296Z,11.8
2019-05-28T06:18:14.977Z,12
2019-05-28T06:23:15.115Z,12.1
2019-05-28T06:28:15.159Z,12.3
2019-05-28T06:33:15.251Z,12.4
2019-05-28T06:38:15.261Z,12.6
2019-05-28T06:43:15.543Z,12.8
2019-05-28T06:48:15.799Z,12.9
2019-05-28T06:53:15.844Z,13
2019-05-28T06:58:15.918Z,13.1
2019-05-28T07:03:15.747Z,13.1
2019-05-28T07:08:15.848Z,13.2
2019-05-28T07:13:15.871Z,13.3
2019-05-28T07:18:15.836Z,13.3
2019-05-28T07:23:15.762Z,13.5
2019-05-28T07:28:15.961Z,13.8
2019-05-28T07:33:16.265Z,14
2019-05-28T07:38:16.468Z,13.9
2019-05-28T07:43:17.475Z,13.7
2019-05-28T07:48:17.038Z,13.7
2019-05-28T07:53:17.324Z,13.8
2019-05-28T07:58:17.362Z,13.8
2019-05-28T08:03:18.265Z,14.1
2019-05-28T08:08:18.301Z,14.4
2019-05-28T08:13:18.282Z,14.5
2019-05-28T08:18:18.280Z,14.5
2019-05-28T08:23:18.234Z,14.5
2019-05-28T08:28:20.129Z,14.7
2019-05-28T08:33:18.496Z,14.6
2019-05-28T08:38:18.773Z,14.7
2019-05-28T08:43:18.816Z,14.7
2019-05-28T08:48:19.004Z,14.9
2019-05-28T08:53:19.168Z,14.9
2019-05-28T08:58:19.003Z,14.8
2019-05-28T09:03:19.945Z,14.8
2019-05-28T09:08:35.406Z,14.8
2019-05-28T09:13:21.106Z,14.9
2019-05-28T09:18:21.170Z,15
2019-05-28T09:23:21.138Z,15.2
2019-05-28T09:28:29.643Z,15.2
2019-05-28T09:33:21.058Z,15.4
2019-05-28T09:38:21.198Z,15.4
2019-05-28T09:43:21.149Z,15.3
2019-05-28T09:48:21.359Z,15.3
2019-05-28T09:53:21.357Z,15.6
2019-05-28T09:58:21.328Z,16.2
2019-05-28T10:03:21.481Z,16.3
2019-05-28T10:08:21.648Z,16.7
2019-05-28T10:13:37.138Z,17
2019-05-28T10:18:23.968Z,17.5
2019-05-28T10:23:28.677Z,18.2
2019-05-28T10:28:28.665Z,18.1
2019-05-28T10:33:28.823Z,18.2
2019-05-28T10:38:29.289Z,18
2019-05-28T10:43:28.892Z,17.5
2019-05-28T10:48:30.262Z,17
2019-05-28T10:53:30.216Z,16.5
2019-05-28T10:58:32.660Z,15.9
2019-05-28T11:03:31.138Z,15.7
2019-05-28T11:08:31.410Z,16
2019-05-28T11:13:52.356Z,15.7
2019-05-28T11:18:40.251Z,15.6
2019-05-28T11:23:40.357Z,15.8
2019-05-28T11:28:40.298Z,15.9
2019-05-28T11:33:40.489Z,15.5
2019-05-28T11:38:41.971Z,15.1
2019-05-28T11:43:43.570Z,14.9
2019-05-28T11:48:44.879Z,14.7
2019-05-28T11:53:44.866Z,14.6
2019-05-28T11:58:44.897Z,14.6
2019-05-28T12:03:45.589Z,14.3
2019-05-28T12:08:49.721Z,14.3
2019-05-28T12:13:54.418Z,14.5
2019-05-28T12:18:58.269Z,14.5
2019-05-28T12:23:59.594Z,14.7
2019-05-28T12:28:57.252Z,15.1
2019-05-28T12:33:59.665Z,14.9
2019-05-28T12:38:57.125Z,15.4
2019-05-28T12:43:59.272Z,15.5
2019-05-28T12:48:57.215Z,15.9
2019-05-28T12:53:59.777Z,15.9
2019-05-28T12:58:57.822Z,15.8
2019-05-28T13:04:02.802Z,16
2019-05-28T13:09:03.066Z,15.8
2019-05-28T13:14:03.743Z,16.1
2019-05-28T13:19:04.410Z,15.9
2019-05-28T13:24:04.361Z,15.8
2019-05-28T13:29:04.716Z,15.9
2019-05-28T13:34:06.248Z,16
2019-05-28T13:39:04.866Z,15.8
2019-05-28T13:44:16.493Z,16
2019-05-28T13:49:05.863Z,16.2
2019-05-28T13:54:06.326Z,16.2
2019-05-28T13:59:06.422Z,16.3
2019-05-28T14:04:06.607Z,16.3
2019-05-28T14:09:07.433Z,16.3
2019-05-28T14:14:08.085Z,16.2
2019-05-28T14:19:07.348Z,16.1
2019-05-28T14:24:07.582Z,16
2019-05-28T14:29:07.470Z,16.4
2019-05-28T14:34:07.688Z,16.6
2019-05-28T14:39:07.937Z,16.4
2019-05-28T14:44:08.106Z,16
2019-05-28T14:49:09.223Z,16
2019-05-28T14:54:07.925Z,15.9
2019-05-28T14:59:08.013Z,16
2019-05-28T15:04:09.918Z,16
2019-05-28T15:09:20.042Z,15.9
2019-05-28T15:14:09.969Z,15.9
2019-05-28T15:19:08.739Z,15.8
2019-05-28T15:24:10.490Z,15.6
2019-05-28T15:29:09.771Z,15.8
2019-05-28T15:34:11.745Z,15.6
2019-05-28T15:39:10.422Z,15.4
2019-05-28T15:44:08.931Z,15.3
2019-05-28T15:49:09.915Z,15.2
2019-05-28T15:54:08.941Z,15.1
2019-05-28T15:59:09.492Z,14.9
2019-05-28T16:04:09.521Z,14.8
2019-05-28T16:09:12.691Z,14.8
2019-05-28T16:14:11.323Z,14.7
2019-05-28T16:19:11.590Z,14.8
2019-05-28T16:24:11.618Z,15
2019-05-28T16:29:11.653Z,15.1
2019-05-28T16:34:11.594Z,15.4
2019-05-28T16:39:12.693Z,15.3
2019-05-28T16:44:11.551Z,15.3
2019-05-28T16:49:12.069Z,15.1
2019-05-28T16:54:18.961Z,15
2019-05-28T16:59:11.869Z,14.8
2019-05-28T17:04:12.067Z,14.5
2019-05-28T17:09:13.944Z,14.3
2019-05-28T17:14:14.716Z,14.2
2019-05-28T17:19:14.389Z,14.4
2019-05-28T17:24:14.684Z,14.5
2019-05-28T17:29:14.799Z,14.5
2019-05-28T17:34:14.659Z,14.4
2019-05-28T17:39:14.767Z,14.4
2019-05-28T17:44:14.740Z,14.4
2019-05-28T17:49:16.255Z,14.4
2019-05-28T17:54:16.074Z,14.3
2019-05-28T17:59:16.134Z,14.2
2019-05-28T18:04:16.889Z,14.1
2019-05-28T18:09:18.787Z,14.1
2019-05-28T18:14:19.251Z,14
2019-05-28T18:19:26.945Z,13.9
2019-05-28T18:24:26.939Z,13.9
2019-05-28T18:29:31.943Z,13.8
2019-05-28T18:34:32.031Z,13.8
2019-05-28T18:39:38.198Z,13.7
2019-05-28T18:44:40.059Z,13.6
2019-05-28T18:49:41.507Z,13.4
2019-05-28T18:54:40.673Z,13.4
2019-05-28T18:59:43.256Z,13.4
2019-05-28T19:04:44.904Z,13.4
2019-05-28T19:09:42.336Z,13.3
2019-05-28T19:14:45.418Z,13.3
2019-05-28T19:19:42.100Z,13.2
2019-05-28T19:24:41.927Z,13
2019-05-28T19:29:42.182Z,12.9
2019-05-28T19:34:42.041Z,12.9
2019-05-28T19:39:45.847Z,12.7
2019-05-28T19:44:48.956Z,12.6
2019-05-28T19:49:48.008Z,12.7
2019-05-28T19:54:49.821Z,12.6
2019-05-28T19:59:53.827Z,12.5
2019-05-28T20:04:50.091Z,12.5
2019-05-28T20:09:54.237Z,12.4
2019-05-28T20:14:57.170Z,12.4
2019-05-28T20:19:57.574Z,12.3
2019-05-28T20:25:05.420Z,12.3
2019-05-28T20:30:07.171Z,12.3
2019-05-28T20:35:07.664Z,12.3
2019-05-28T20:40:06.310Z,12.3
2019-05-28T20:45:25.065Z,12.2
2019-05-28T20:50:15.503Z,12.2
2019-05-28T20:55:15.304Z,12.1
2019-05-28T21:00:16.260Z,12.1
2019-05-28T21:05:16.095Z,12.1
2019-05-28T21:10:24.080Z,12
2019-05-28T21:15:22.203Z,12
2019-05-28T21:20:23.501Z,11.9
2019-05-28T21:25:23.451Z,11.9
2019-05-28T21:30:23.527Z,11.9
2019-05-28T21:35:23.443Z,11.9
2019-05-28T21:40:23.789Z,11.8
2019-05-28T21:45:25.014Z,11.8
2019-05-28T21:50:24.975Z,11.8
2019-05-28T21:55:24.997Z,11.8
2019-05-28T22:00:25.189Z,11.7
2019-05-28T22:05:26.079Z,11.6
2019-05-28T22:10:26.271Z,11.6
2019-05-28T22:15:27.392Z,11.6
2019-05-28T22:20:26.961Z,11.5
2019-05-28T22:25:27.297Z,11.5
2019-05-28T22:30:26.911Z,11.5
2019-05-28T22:35:26.940Z,11.4
2019-05-28T22:40:28.577Z,11.4
2019-05-28T22:45:28.557Z,11.4
2019-05-28T22:50:29.575Z,11.3
2019-05-28T22:55:29.748Z,11.3
2019-05-28T23:00:28.506Z,11.3
2019-05-28T23:05:28.508Z,11.3
2019-05-28T23:10:29.223Z,11.2
2019-05-28T23:15:28.585Z,11.2
2019-05-28T23:20:28.614Z,11.2
2019-05-28T23:25:28.638Z,11.2
2019-05-28T23:30:28.627Z,11.2
2019-05-28T23:35:28.894Z,11.1
2019-05-28T23:40:28.581Z,11.1
2019-05-28T23:45:28.571Z,11.1
2019-05-28T23:50:33.149Z,11.1
2019-05-28T23:55:28.883Z,11.1
